createdAt,value
2018-11-10T00:00:14.819Z,62.44
2018-11-10T00:02:42.505Z,62.72
2018-11-10T00:05:10.117Z,62.59
2018-11-10T00:07:37.732Z,62.48
2018-11-10T00:10:05.440Z,62.49
2018-11-10T00:12:33.108Z,62.35
2018-11-10T00:15:00.845Z,62.42
2018-11-10T00:17:28.489Z,62.61
2018-11-10T00:19:56.076Z,62.64
2018-11-10T00:22:23.855Z,62.79
2018-11-10T00:24:51.444Z,62.29
2018-11-10T00:27:19.120Z,62.60
2018-11-10T00:29:47.626Z,62.42
2018-11-10T00:32:15.219Z,62.68
2018-11-10T00:34:42.927Z,62.60
2018-11-10T00:37:10.510Z,62.58
2018-11-10T00:39:38.167Z,62.58
2018-11-10T00:42:06.374Z,62.52
2018-11-10T00:44:33.936Z,62.60
2018-11-10T00:47:01.568Z,62.47
2018-11-10T00:49:29.156Z,62.57
2018-11-10T00:51:56.750Z,62.64
2018-11-10T00:54:24.408Z,62.56
2018-11-10T00:56:52.057Z,62.52
2018-11-10T00:59:20.190Z,62.47
2018-11-10T01:01:47.848Z,62.44
2018-11-10T01:04:15.504Z,62.34
2018-11-10T01:06:43.158Z,62.60
2018-11-10T01:09:10.960Z,62.59
2018-11-10T01:11:38.625Z,62.17
2018-11-10T01:14:06.786Z,62.52
2018-11-10T01:16:34.416Z,62.54
2018-11-10T01:19:02.061Z,62.69
2018-11-10T01:21:29.712Z,62.85
2018-11-10T01:23:57.394Z,62.47
2018-11-10T01:26:24.983Z,62.66
2018-11-10T01:28:52.623Z,62.79
2018-11-10T01:31:20.231Z,62.45
2018-11-10T01:33:48.009Z,62.40
2018-11-10T01:36:15.610Z,62.28
2018-11-10T01:38:43.252Z,62.53
2018-11-10T01:41:10.862Z,62.35
2018-11-10T01:43:38.461Z,62.36
2018-11-10T01:46:06.072Z,62.34
2018-11-10T01:48:33.687Z,62.27
2018-11-10T01:51:01.425Z,62.33
2018-11-10T01:53:28.996Z,62.35
2018-11-10T01:55:56.597Z,62.24
2018-11-10T01:58:24.255Z,62.39
2018-11-10T02:00:51.832Z,62.45
2018-11-10T02:03:19.467Z,62.37
2018-11-10T02:05:47.044Z,62.44
2018-11-10T02:08:14.696Z,62.22
2018-11-10T02:10:42.340Z,62.28
2018-11-10T02:13:09.940Z,62.42
2018-11-10T02:15:37.652Z,62.64
2018-11-10T02:18:05.619Z,62.38
2018-11-10T02:20:33.271Z,62.35
2018-11-10T02:23:00.876Z,62.36
2018-11-10T02:25:28.744Z,62.37
2018-11-10T02:27:56.404Z,62.22
2018-11-10T02:30:23.983Z,62.32
2018-11-10T02:32:51.572Z,62.30
2018-11-10T02:35:19.247Z,62.20
2018-11-10T02:37:46.822Z,62.31
2018-11-10T02:40:15.061Z,62.35
2018-11-10T02:42:43.111Z,62.23
2018-11-10T02:45:12.387Z,62.48
2018-11-10T02:47:40.064Z,62.39
2018-11-10T02:50:07.712Z,62.17
2018-11-10T02:52:35.592Z,61.95
2018-11-10T02:55:03.323Z,62.38
2018-11-10T02:57:30.976Z,62.39
2018-11-10T02:59:58.555Z,62.31
2018-11-10T03:02:26.205Z,62.37
2018-11-10T03:04:53.789Z,62.15
2018-11-10T03:07:21.582Z,62.17
2018-11-10T03:09:49.200Z,62.18
2018-11-10T03:12:16.812Z,62.24
2018-11-10T03:14:44.370Z,62.18
2018-11-10T03:17:12.064Z,61.83
2018-11-10T03:19:39.885Z,62.09
2018-11-10T03:22:07.508Z,62.15
2018-11-10T03:24:35.111Z,62.04
2018-11-10T03:27:02.752Z,62.14
2018-11-10T03:29:30.413Z,62.13
2018-11-10T03:31:58.019Z,62.05
2018-11-10T03:34:25.758Z,61.82
2018-11-10T03:36:53.386Z,62.43
2018-11-10T03:39:21.021Z,62.08
2018-11-10T03:41:48.643Z,61.92
2018-11-10T03:44:16.298Z,62.30
2018-11-10T03:46:43.939Z,62.42
2018-11-10T03:49:11.544Z,62.17
2018-11-10T03:51:39.157Z,62.13
2018-11-10T03:54:07.003Z,61.98
2018-11-10T03:56:34.634Z,62.04
2018-11-10T03:59:02.287Z,61.89
2018-11-10T04:01:29.932Z,62.20
2018-11-10T04:03:57.556Z,61.97
2018-11-10T04:06:25.200Z,62.07
2018-11-10T04:08:52.925Z,62.13
2018-11-10T04:11:20.589Z,61.93
2018-11-10T04:13:48.199Z,61.92
2018-11-10T04:16:15.884Z,61.96
2018-11-10T04:18:43.576Z,62.11
2018-11-10T04:21:11.229Z,61.99
2018-11-10T04:23:38.996Z,62.00
2018-11-10T04:26:06.660Z,61.97
2018-11-10T04:28:34.243Z,62.03
2018-11-10T04:31:01.853Z,62.13
2018-11-10T04:33:29.536Z,62.01
2018-11-10T04:35:57.164Z,62.02
2018-11-10T04:38:24.849Z,61.92
2018-11-10T04:40:52.482Z,61.71
2018-11-10T04:43:20.069Z,61.93
2018-11-10T04:45:47.708Z,61.74
2018-11-10T04:48:15.383Z,62.00
2018-11-10T04:50:42.963Z,61.82
2018-11-10T04:53:10.605Z,61.82
2018-11-10T04:55:38.232Z,61.69
2018-11-10T04:58:05.802Z,61.75
2018-11-10T05:00:33.439Z,61.68
2018-11-10T05:03:01.058Z,61.58
2018-11-10T05:05:28.663Z,61.98
2018-11-10T05:07:56.305Z,61.70
2018-11-10T05:10:23.896Z,61.79
2018-11-10T05:12:51.549Z,61.77
2018-11-10T05:15:19.180Z,61.88
2018-11-10T05:17:46.836Z,61.89
2018-11-10T05:20:14.577Z,61.63
2018-11-10T05:22:42.184Z,61.47
2018-11-10T05:25:10.638Z,61.75
2018-11-10T05:27:38.293Z,61.72
2018-11-10T05:30:06.477Z,61.48
2018-11-10T05:32:34.131Z,61.58
2018-11-10T05:35:01.845Z,61.89
2018-11-10T05:37:29.456Z,61.79
2018-11-10T05:39:57.048Z,61.72
2018-11-10T05:42:24.680Z,61.30
2018-11-10T05:44:52.259Z,61.50
2018-11-10T05:47:19.914Z,61.32
2018-11-10T05:49:47.476Z,61.47
2018-11-10T05:52:15.115Z,61.48
2018-11-10T05:54:42.736Z,61.44
2018-11-10T05:57:10.362Z,61.27
2018-11-10T05:59:37.979Z,61.33
2018-11-10T06:02:05.737Z,61.37
2018-11-10T06:04:33.353Z,61.30
2018-11-10T06:07:00.945Z,61.25
2018-11-10T06:09:28.641Z,61.19
2018-11-10T06:11:56.214Z,61.08
2018-11-10T06:14:23.791Z,61.39
2018-11-10T06:16:51.431Z,61.48
2018-11-10T06:19:19.039Z,61.22
2018-11-10T06:21:46.617Z,61.28
2018-11-10T06:24:14.285Z,61.02
2018-11-10T06:26:41.927Z,60.90
2018-11-10T06:29:09.683Z,61.18
2018-11-10T06:31:37.285Z,60.87
2018-11-10T06:34:05.241Z,60.91
2018-11-10T06:36:32.888Z,60.87
2018-11-10T06:39:00.489Z,61.11
2018-11-10T06:41:28.137Z,61.06
2018-11-10T06:43:55.684Z,60.96
2018-11-10T06:46:23.296Z,60.67
2018-11-10T06:48:50.959Z,60.67
2018-11-10T06:51:18.593Z,60.78
2018-11-10T06:53:46.208Z,60.92
2018-11-10T06:56:13.766Z,60.96
2018-11-10T06:58:41.403Z,60.95
2018-11-10T07:01:09.020Z,60.75
2018-11-10T07:03:36.669Z,60.69
2018-11-10T07:06:04.511Z,60.79
2018-11-10T07:08:32.102Z,60.63
2018-11-10T07:10:59.748Z,60.47
2018-11-10T07:13:27.402Z,60.63
2018-11-10T07:15:58.656Z,60.85
2018-11-10T07:18:26.232Z,60.42
2018-11-10T07:20:53.864Z,60.65
2018-11-10T07:23:21.652Z,60.44
2018-11-10T07:25:49.326Z,60.50
2018-11-10T07:28:16.949Z,60.77
2018-11-10T07:30:44.598Z,60.67
2018-11-10T07:33:12.218Z,60.32
2018-11-10T07:35:39.824Z,60.57
2018-11-10T07:38:07.427Z,60.37
2018-11-10T07:40:35.052Z,60.39
2018-11-10T07:43:02.716Z,60.32
2018-11-10T07:45:30.294Z,60.29
2018-11-10T07:47:57.929Z,60.40
2018-11-10T07:50:25.551Z,60.45
2018-11-10T07:52:53.158Z,60.51
2018-11-10T07:55:20.792Z,60.28
2018-11-10T07:57:48.401Z,60.35
2018-11-10T08:00:17.155Z,60.33
2018-11-10T08:02:44.835Z,60.31
2018-11-10T08:05:12.953Z,60.28
2018-11-10T08:07:41.409Z,60.31
2018-11-10T08:10:09.494Z,60.19
2018-11-10T08:12:37.497Z,60.19
2018-11-10T08:15:07.260Z,60.01
2018-11-10T08:17:34.820Z,60.30
2018-11-10T08:20:02.453Z,60.06
2018-11-10T08:22:30.110Z,60.30
2018-11-10T08:24:57.808Z,60.01
2018-11-10T08:27:25.415Z,60.15
2018-11-10T08:29:53.011Z,60.00
2018-11-10T08:32:20.676Z,60.03
2018-11-10T08:34:48.236Z,60.06
2018-11-10T08:37:15.861Z,59.93
2018-11-10T08:39:43.469Z,60.09
2018-11-10T08:42:11.085Z,60.24
2018-11-10T08:44:38.672Z,59.89
2018-11-10T08:47:06.742Z,60.06
2018-11-10T08:49:34.350Z,59.87
2018-11-10T08:52:01.935Z,59.98
2018-11-10T08:54:29.584Z,59.86
2018-11-10T08:56:57.140Z,59.88
2018-11-10T08:59:24.801Z,60.02
2018-11-10T09:01:52.392Z,59.95
2018-11-10T09:04:20.047Z,59.74
2018-11-10T09:06:47.673Z,59.86
2018-11-10T09:09:15.268Z,59.62
2018-11-10T09:11:42.894Z,59.70
2018-11-10T09:14:10.657Z,59.38
2018-11-10T09:16:38.288Z,59.54
2018-11-10T09:19:05.896Z,59.43
2018-11-10T09:21:33.494Z,59.27
2018-11-10T09:24:01.131Z,59.38
2018-11-10T09:26:28.761Z,59.21
2018-11-10T09:28:56.362Z,59.36
2018-11-10T09:31:24.017Z,59.11
2018-11-10T09:33:51.744Z,59.28
2018-11-10T09:36:19.425Z,59.23
2018-11-10T09:38:47.064Z,59.20
2018-11-10T09:41:14.644Z,59.19
2018-11-10T09:43:42.251Z,59.28
2018-11-10T09:46:09.897Z,59.49
2018-11-10T09:48:37.444Z,59.20
2018-11-10T09:51:05.078Z,59.19
2018-11-10T09:53:32.708Z,59.29
2018-11-10T09:56:00.321Z,59.28
2018-11-10T09:58:27.970Z,59.10
2018-11-10T10:00:55.642Z,59.04
2018-11-10T10:03:23.267Z,59.12
2018-11-10T10:05:50.892Z,59.27
2018-11-10T10:08:18.525Z,59.14
2018-11-10T10:10:46.126Z,58.98
2018-11-10T10:13:13.727Z,58.89
2018-11-10T10:15:41.356Z,59.05
2018-11-10T10:18:09.033Z,59.07
2018-11-10T10:20:36.607Z,58.81
2018-11-10T10:23:04.479Z,59.01
2018-11-10T10:25:32.100Z,58.98
2018-11-10T10:27:59.716Z,58.99
2018-11-10T10:30:27.361Z,58.75
2018-11-10T10:32:55.021Z,58.80
2018-11-10T10:35:22.971Z,58.82
2018-11-10T10:37:51.169Z,58.71
2018-11-10T10:40:18.780Z,58.89
2018-11-10T10:42:46.906Z,58.83
2018-11-10T10:45:19.808Z,58.38
2018-11-10T10:47:47.432Z,58.70
2018-11-10T10:50:16.206Z,58.69
2018-11-10T10:52:43.904Z,58.52
2018-11-10T10:55:12.892Z,58.71
2018-11-10T10:57:40.733Z,58.49
2018-11-10T11:00:14.581Z,58.57
2018-11-10T11:02:54.498Z,58.15
2018-11-10T11:05:27.697Z,58.44
2018-11-10T11:07:55.634Z,58.26
2018-11-10T11:10:23.501Z,58.58
2018-11-10T11:12:51.113Z,58.45
2018-11-10T11:15:18.800Z,58.27
2018-11-10T11:17:46.692Z,58.25
2018-11-10T11:20:14.406Z,58.36
2018-11-10T11:22:42.431Z,58.00
2018-11-10T11:25:10.069Z,57.97
2018-11-10T11:27:37.712Z,58.19
2018-11-10T11:30:06.392Z,58.12
2018-11-10T11:32:34.068Z,57.93
2018-11-10T11:35:01.704Z,57.89
2018-11-10T11:37:29.437Z,58.08
2018-11-10T11:39:57.031Z,58.15
2018-11-10T11:42:24.741Z,58.29
2018-11-10T11:44:52.386Z,58.28
2018-11-10T11:47:20.123Z,57.94
2018-11-10T11:49:47.833Z,57.76
2018-11-10T11:52:15.405Z,58.16
2018-11-10T11:54:43.029Z,58.04
2018-11-10T11:57:10.648Z,58.28
2018-11-10T11:59:38.327Z,58.39
2018-11-10T12:02:05.946Z,58.25
2018-11-10T12:04:33.497Z,58.00
2018-11-10T12:07:01.111Z,58.15
2018-11-10T12:09:28.747Z,58.24
2018-11-10T12:11:56.340Z,58.06
2018-11-10T12:14:23.996Z,58.39
2018-11-10T12:16:51.671Z,58.41
2018-11-10T12:19:19.295Z,58.22
2018-11-10T12:21:46.956Z,58.12
2018-11-10T12:24:14.587Z,58.22
2018-11-10T12:26:42.311Z,58.35
2018-11-10T12:29:09.916Z,58.36
2018-11-10T12:31:37.556Z,58.11
2018-11-10T12:34:05.658Z,58.21
2018-11-10T12:36:33.248Z,58.52
2018-11-10T12:39:00.981Z,58.24
2018-11-10T12:41:28.535Z,58.70
2018-11-10T12:43:56.149Z,58.35
2018-11-10T12:46:23.881Z,58.31
2018-11-10T12:48:51.527Z,58.41
2018-11-10T12:51:19.153Z,57.97
2018-11-10T12:53:46.743Z,58.94
2018-11-10T12:56:14.370Z,58.00
2018-11-10T12:58:41.980Z,58.64
2018-11-10T13:01:09.544Z,58.19
2018-11-10T13:03:37.184Z,58.17
2018-11-10T13:06:05.073Z,58.42
2018-11-10T13:08:32.674Z,58.49
2018-11-10T13:11:00.340Z,58.41
2018-11-10T13:13:27.957Z,57.94
2018-11-10T13:15:57.247Z,58.27
2018-11-10T13:18:24.888Z,58.60
2018-11-10T13:20:52.529Z,58.30
2018-11-10T13:23:20.146Z,58.73
2018-11-10T13:25:47.772Z,58.65
2018-11-10T13:28:15.355Z,58.21
2018-11-10T13:30:43.059Z,58.17
2018-11-10T13:33:10.678Z,58.43
2018-11-10T13:35:38.328Z,58.28
2018-11-10T13:38:06.077Z,58.16
2018-11-10T13:40:33.640Z,58.68
2018-11-10T13:43:01.342Z,58.70
2018-11-10T13:45:28.994Z,58.24
2018-11-10T13:47:56.576Z,58.49
2018-11-10T13:50:24.218Z,58.23
2018-11-10T13:52:52.248Z,58.33
2018-11-10T13:55:19.655Z,58.27
2018-11-10T13:57:47.288Z,58.38
2018-11-10T14:00:16.444Z,58.38
2018-11-10T14:02:44.121Z,58.27
2018-11-10T14:05:12.347Z,58.33
2018-11-10T14:07:40.284Z,58.31
2018-11-10T14:10:09.727Z,58.32
2018-11-10T14:12:37.551Z,58.55
2018-11-10T14:15:05.216Z,58.17
2018-11-10T14:17:32.796Z,58.42
2018-11-10T14:20:00.578Z,58.50
2018-11-10T14:22:28.188Z,58.62
2018-11-10T14:24:55.940Z,58.57
2018-11-10T14:27:23.574Z,58.45
2018-11-10T14:29:51.206Z,58.12
2018-11-10T14:32:18.964Z,58.40
2018-11-10T14:34:46.608Z,58.63
2018-11-10T14:37:14.227Z,58.67
2018-11-10T14:39:41.872Z,58.48
2018-11-10T14:42:09.537Z,58.68
2018-11-10T14:44:37.143Z,58.20
2018-11-10T14:47:04.742Z,58.41
2018-11-10T14:49:32.507Z,58.81
2018-11-10T14:52:00.149Z,58.29
2018-11-10T14:54:27.739Z,58.43
2018-11-10T14:56:55.435Z,58.62
2018-11-10T14:59:23.056Z,58.57
2018-11-10T15:01:50.709Z,58.37
2018-11-10T15:04:18.296Z,58.56
2018-11-10T15:06:46.015Z,58.54
2018-11-10T15:09:13.819Z,58.68
2018-11-10T15:11:41.581Z,58.52
2018-11-10T15:14:09.167Z,58.86
2018-11-10T15:16:36.883Z,58.78
2018-11-10T15:19:04.864Z,58.45
2018-11-10T15:21:32.543Z,58.91
2018-11-10T15:24:00.196Z,58.79
2018-11-10T15:26:27.848Z,58.83
2018-11-10T15:28:55.536Z,58.67
2018-11-10T15:31:23.154Z,58.78
2018-11-10T15:33:50.771Z,58.37
2018-11-10T15:36:18.515Z,58.78
2018-11-10T15:38:46.115Z,58.75
2018-11-10T15:41:13.802Z,58.79
2018-11-10T15:43:41.446Z,58.88
2018-11-10T15:46:09.120Z,58.79
2018-11-10T15:48:36.772Z,58.70
2018-11-10T15:51:04.577Z,58.99
2018-11-10T15:53:32.207Z,58.92
2018-11-10T15:55:59.965Z,58.85
2018-11-10T15:58:27.648Z,58.83
2018-11-10T16:00:55.328Z,58.87
2018-11-10T16:03:23.020Z,59.02
2018-11-10T16:05:50.663Z,58.96
2018-11-10T16:08:18.343Z,59.07
2018-11-10T16:10:45.947Z,59.02
2018-11-10T16:13:13.572Z,58.88
2018-11-10T16:15:41.149Z,58.86
2018-11-10T16:18:08.936Z,58.80
2018-11-10T16:20:36.624Z,59.03
2018-11-10T16:23:04.367Z,59.08
2018-11-10T16:25:32.144Z,58.86
2018-11-10T16:27:59.756Z,59.04
2018-11-10T16:30:27.378Z,59.17
2018-11-10T16:32:55.056Z,59.12
2018-11-10T16:35:22.720Z,58.98
2018-11-10T16:37:50.291Z,58.92
2018-11-10T16:40:19.133Z,58.92
2018-11-10T16:42:47.446Z,58.98
2018-11-10T16:45:15.871Z,58.92
2018-11-10T16:47:43.474Z,59.14
2018-11-10T16:50:11.380Z,59.02
2018-11-10T16:52:39.681Z,59.03
2018-11-10T16:55:07.614Z,59.06
2018-11-10T16:57:35.179Z,58.99
2018-11-10T17:00:02.880Z,58.91
2018-11-10T17:02:30.543Z,59.33
2018-11-10T17:04:58.233Z,59.10
2018-11-10T17:07:25.899Z,58.89
2018-11-10T17:09:53.543Z,58.92
2018-11-10T17:12:21.281Z,58.94
2018-11-10T17:14:48.922Z,59.00
2018-11-10T17:17:16.511Z,59.19
2018-11-10T17:19:44.196Z,58.97
2018-11-10T17:22:11.874Z,58.92
2018-11-10T17:24:39.472Z,58.96
2018-11-10T17:27:07.257Z,58.91
2018-11-10T17:29:34.886Z,59.28
2018-11-10T17:32:02.536Z,59.32
2018-11-10T17:34:30.312Z,59.28
2018-11-10T17:36:58.095Z,59.06
2018-11-10T17:39:25.805Z,59.15
2018-11-10T17:41:53.364Z,59.06
2018-11-10T17:44:21.124Z,59.09
2018-11-10T17:46:48.705Z,59.07
2018-11-10T17:49:16.486Z,59.10
2018-11-10T17:51:44.095Z,59.26
2018-11-10T17:54:11.680Z,59.16
2018-11-10T17:56:39.419Z,59.05
2018-11-10T17:59:07.536Z,59.23
2018-11-10T18:01:35.317Z,59.33
2018-11-10T18:04:03.281Z,59.14
2018-11-10T18:06:30.868Z,59.43
2018-11-10T18:08:58.690Z,59.17
2018-11-10T18:11:26.373Z,59.11
2018-11-10T18:13:54.003Z,59.31
2018-11-10T18:16:21.665Z,59.10
2018-11-10T18:18:49.435Z,59.25
2018-11-10T18:21:17.018Z,59.27
2018-11-10T18:23:44.648Z,58.95
2018-11-10T18:26:12.307Z,59.29
2018-11-10T18:28:39.905Z,59.03
2018-11-10T18:31:07.588Z,59.06
2018-11-10T18:33:35.203Z,59.04
2018-11-10T18:36:02.872Z,59.17
2018-11-10T18:38:30.541Z,59.20
2018-11-10T18:40:58.181Z,59.02
2018-11-10T18:43:25.811Z,58.96
2018-11-10T18:45:53.477Z,58.93
2018-11-10T18:48:21.087Z,59.10
2018-11-10T18:50:48.707Z,59.00
2018-11-10T18:53:16.405Z,59.13
2018-11-10T18:55:44.013Z,59.06
2018-11-10T18:58:11.729Z,59.20
2018-11-10T19:00:39.434Z,59.26
2018-11-10T19:03:07.070Z,59.19
2018-11-10T19:05:34.721Z,59.20
2018-11-10T19:08:02.335Z,59.24
2018-11-10T19:10:29.980Z,59.11
2018-11-10T19:12:57.660Z,59.24
2018-11-10T19:15:25.291Z,59.29
2018-11-10T19:17:53.036Z,59.07
2018-11-10T19:20:20.667Z,59.06
2018-11-10T19:22:48.242Z,59.03
2018-11-10T19:25:15.984Z,59.10
2018-11-10T19:27:43.542Z,59.09
2018-11-10T19:30:17.126Z,59.00
2018-11-10T19:32:45.496Z,59.07
2018-11-10T19:35:13.438Z,59.26
2018-11-10T19:37:41.201Z,58.95
2018-11-10T19:40:09.637Z,59.24
2018-11-10T19:42:37.417Z,59.00
2018-11-10T19:45:06.064Z,58.99
2018-11-10T19:47:33.778Z,59.07
2018-11-10T19:50:01.418Z,58.96
2018-11-10T19:52:29.080Z,59.24
2018-11-10T19:54:56.760Z,59.20
2018-11-10T19:57:24.394Z,59.03
2018-11-10T19:59:52.210Z,59.36
2018-11-10T20:02:19.926Z,59.02
2018-11-10T20:04:47.531Z,59.23
2018-11-10T20:07:15.149Z,59.28
2018-11-10T20:09:42.867Z,59.21
2018-11-10T20:12:10.505Z,59.15
2018-11-10T20:14:38.094Z,59.14
2018-11-10T20:17:05.768Z,58.98
2018-11-10T20:19:33.428Z,59.17
2018-11-10T20:22:01.088Z,59.28
2018-11-10T20:24:28.872Z,59.01
2018-11-10T20:26:56.464Z,59.19
2018-11-10T20:29:24.071Z,59.13
2018-11-10T20:31:51.742Z,58.93
2018-11-10T20:34:19.469Z,59.21
2018-11-10T20:36:47.101Z,59.08
2018-11-10T20:39:14.748Z,58.98
2018-11-10T20:41:42.429Z,59.09
2018-11-10T20:46:44.238Z,59.12
2018-11-10T20:49:11.905Z,58.93
2018-11-10T20:51:39.526Z,59.06
2018-11-10T20:54:07.489Z,58.93
2018-11-10T20:56:35.137Z,59.06
2018-11-10T20:59:02.715Z,59.13
2018-11-10T21:01:30.414Z,58.99
2018-11-10T21:03:58.036Z,59.24
2018-11-10T21:06:25.763Z,58.91
2018-11-10T21:08:53.395Z,59.10
2018-11-10T21:11:21.083Z,58.94
2018-11-10T21:13:48.784Z,59.15
2018-11-10T21:16:16.409Z,59.00
2018-11-10T21:18:44.041Z,59.14
2018-11-10T21:21:11.750Z,59.07
2018-11-10T21:23:39.416Z,59.10
2018-11-10T21:26:07.053Z,58.91
2018-11-10T21:28:34.745Z,58.83
2018-11-10T21:31:02.383Z,58.93
2018-11-10T21:33:30.121Z,59.03
2018-11-10T21:35:57.729Z,58.85
2018-11-10T21:38:25.362Z,59.06
2018-11-10T21:40:53.065Z,59.12
2018-11-10T21:43:20.720Z,59.11
2018-11-10T21:45:49.136Z,59.23
2018-11-10T21:48:16.782Z,59.01
2018-11-10T21:50:44.384Z,59.17
2018-11-10T21:53:11.977Z,59.01
2018-11-10T21:55:39.632Z,59.30
2018-11-10T21:58:07.206Z,59.01
2018-11-10T22:00:34.844Z,59.22
2018-11-10T22:03:02.484Z,59.06
2018-11-10T22:05:30.142Z,58.96
2018-11-10T22:07:57.893Z,59.00
2018-11-10T22:10:25.539Z,58.87
2018-11-10T22:12:53.143Z,59.15
2018-11-10T22:15:21.978Z,58.95
2018-11-10T22:17:49.863Z,59.06
2018-11-10T22:20:18.805Z,58.94
2018-11-10T22:22:46.520Z,59.05
2018-11-10T22:25:14.605Z,59.22
2018-11-10T22:27:43.487Z,59.15
2018-11-10T22:30:13.056Z,59.07
2018-11-10T22:32:41.097Z,59.11
2018-11-10T22:35:09.425Z,59.13
2018-11-10T22:37:37.437Z,59.27
2018-11-10T22:40:06.510Z,59.11
2018-11-10T22:42:34.648Z,58.96
2018-11-10T22:45:02.332Z,59.09
2018-11-10T22:47:29.955Z,58.93
2018-11-10T22:49:57.636Z,59.16
2018-11-10T22:52:25.413Z,59.18
2018-11-10T22:54:52.987Z,59.16
2018-11-10T22:57:20.771Z,59.19
2018-11-10T22:59:48.394Z,58.85
2018-11-10T23:02:16.004Z,59.15
2018-11-10T23:04:43.629Z,59.09
2018-11-10T23:07:11.347Z,59.11
2018-11-10T23:09:38.894Z,59.17
2018-11-10T23:12:06.529Z,59.09
2018-11-10T23:14:34.225Z,59.05
2018-11-10T23:17:01.848Z,59.07
2018-11-10T23:19:29.416Z,59.11
2018-11-10T23:21:57.025Z,59.14
2018-11-10T23:24:24.636Z,59.15
2018-11-10T23:26:52.267Z,58.95
2018-11-10T23:29:19.829Z,59.13
2018-11-10T23:31:47.560Z,59.21
2018-11-10T23:34:15.381Z,59.08
2018-11-10T23:36:42.988Z,59.04
2018-11-10T23:39:12.145Z,59.07
2018-11-10T23:41:40.471Z,58.92
2018-11-10T23:44:08.760Z,58.94
2018-11-10T23:46:36.819Z,59.10
2018-11-10T23:49:04.646Z,59.15
2018-11-10T23:51:32.330Z,58.89
2018-11-10T23:53:59.957Z,58.97
2018-11-10T23:56:27.528Z,59.22
2018-11-10T23:58:55.204Z,59.11
